sensor_id;sensor_type;location;lat;lon;timestamp;pressure;altitude;pressure_sealevel;temperature
68588;BMP180;55560;52.174;20.996;2024-01-06T00:02:12;99935.40;;;-1.38
68588;BMP180;55560;52.174;20.996;2024-01-06T00:04:40;99936.80;;;-1.32
68588;BMP180;55560;52.174;20.996;2024-01-06T00:07:08;99933.40;;;-1.30
68588;BMP180;55560;52.174;20.996;2024-01-06T00:09:37;99938.40;;;-1.30
68588;BMP180;55560;52.174;20.996;2024-01-06T00:12:05;99946.20;;;-1.30
68588;BMP180;55560;52.174;20.996;2024-01-06T00:14:33;99947.40;;;-1.28
68588;BMP180;55560;52.174;20.996;2024-01-06T00:17:02;99947.00;;;-1.30
68588;BMP180;55560;52.174;20.996;2024-01-06T00:19:30;99946.80;;;-1.30
68588;BMP180;55560;52.174;20.996;2024-01-06T00:21:58;99944.60;;;-1.20
68588;BMP180;55560;52.174;20.996;2024-01-06T00:24:26;99941.00;;;-1.20
68588;BMP180;55560;52.174;20.996;2024-01-06T00:26:54;99943.20;;;-1.20
68588;BMP180;55560;52.174;20.996;2024-01-06T00:29:22;99946.00;;;-1.20
68588;BMP180;55560;52.174;20.996;2024-01-06T00:31:50;99952.00;;;-1.20
68588;BMP180;55560;52.174;20.996;2024-01-06T00:34:18;99952.80;;;-1.16
68588;BMP180;55560;52.174;20.996;2024-01-06T00:36:46;99963.60;;;-1.20
68588;BMP180;55560;52.174;20.996;2024-01-06T00:39:14;99969.80;;;-1.20
68588;BMP180;55560;52.174;20.996;2024-01-06T00:41:42;99973.40;;;-1.20
68588;BMP180;55560;52.174;20.996;2024-01-06T00:44:10;99973.00;;;-1.12
68588;BMP180;55560;52.174;20.996;2024-01-06T00:46:39;99965.20;;;-1.10
68588;BMP180;55560;52.174;20.996;2024-01-06T00:49:07;99953.40;;;-1.10
68588;BMP180;55560;52.174;20.996;2024-01-06T00:51:35;99950.20;;;-1.12
68588;BMP180;55560;52.174;20.996;2024-01-06T00:54:06;99946.80;;;-1.20
68588;BMP180;55560;52.174;20.996;2024-01-06T00:56:35;99938.20;;;-1.20
68588;BMP180;55560;52.174;20.996;2024-01-06T00:59:03;99926.40;;;-1.20
68588;BMP180;55560;52.174;20.996;2024-01-06T01:01:31;99923.60;;;-1.22
68588;BMP180;55560;52.174;20.996;2024-01-06T01:03:59;99916.80;;;-1.28
68588;BMP180;55560;52.174;20.996;2024-01-06T01:06:27;99916.20;;;-1.30
68588;BMP180;55560;52.174;20.996;2024-01-06T01:08:55;99916.80;;;-1.30
68588;BMP180;55560;52.174;20.996;2024-01-06T01:11:24;99914.80;;;-1.30
68588;BMP180;55560;52.174;20.996;2024-01-06T01:13:51;99913.00;;;-1.30
68588;BMP180;55560;52.174;20.996;2024-01-06T01:16:19;99913.40;;;-1.30
68588;BMP180;55560;52.174;20.996;2024-01-06T01:18:47;99907.80;;;-1.30
68588;BMP180;55560;52.174;20.996;2024-01-06T01:21:16;99902.40;;;-1.34
68588;BMP180;55560;52.174;20.996;2024-01-06T01:23:43;99903.80;;;-1.30
68588;BMP180;55560;52.174;20.996;2024-01-06T01:26:11;99907.40;;;-1.36
68588;BMP180;55560;52.174;20.996;2024-01-06T01:28:39;99916.80;;;-1.30
68588;BMP180;55560;52.174;20.996;2024-01-06T01:31:08;99928.20;;;-1.30
68588;BMP180;55560;52.174;20.996;2024-01-06T01:33:36;99930.60;;;-1.30
68588;BMP180;55560;52.174;20.996;2024-01-06T01:36:05;99925.00;;;-1.30
68588;BMP180;55560;52.174;20.996;2024-01-06T01:38:33;99926.00;;;-1.30
68588;BMP180;55560;52.174;20.996;2024-01-06T01:41:02;99922.40;;;-1.30
68588;BMP180;55560;52.174;20.996;2024-01-06T01:43:30;99925.80;;;-1.30
68588;BMP180;55560;52.174;20.996;2024-01-06T01:45:58;99919.20;;;-1.30
68588;BMP180;55560;52.174;20.996;2024-01-06T01:48:26;99917.40;;;-1.30
68588;BMP180;55560;52.174;20.996;2024-01-06T01:50:54;99923.40;;;-1.40
68588;BMP180;55560;52.174;20.996;2024-01-06T01:53:23;99928.40;;;-1.40
68588;BMP180;55560;52.174;20.996;2024-01-06T01:55:52;99930.60;;;-1.40
68588;BMP180;55560;52.174;20.996;2024-01-06T01:58:20;99927.60;;;-1.40
68588;BMP180;55560;52.174;20.996;2024-01-06T02:00:48;99936.40;;;-1.32
68588;BMP180;55560;52.174;20.996;2024-01-06T02:03:16;99933.20;;;-1.40
68588;BMP180;55560;52.174;20.996;2024-01-06T02:05:44;99926.60;;;-1.40
68588;BMP180;55560;52.174;20.996;2024-01-06T02:08:12;99926.60;;;-1.40
68588;BMP180;55560;52.174;20.996;2024-01-06T02:10:40;99920.60;;;-1.40
68588;BMP180;55560;52.174;20.996;2024-01-06T02:13:10;99920.00;;;-1.40
68588;BMP180;55560;52.174;20.996;2024-01-06T02:15:38;99921.00;;;-1.40
68588;BMP180;55560;52.174;20.996;2024-01-06T02:18:07;99922.40;;;-1.40
68588;BMP180;55560;52.174;20.996;2024-01-06T02:20:35;99915.00;;;-1.40
68588;BMP180;55560;52.174;20.996;2024-01-06T02:23:04;99915.60;;;-1.40
68588;BMP180;55560;52.174;20.996;2024-01-06T02:25:32;99912.00;;;-1.40
68588;BMP180;55560;52.174;20.996;2024-01-06T02:28:01;99904.20;;;-1.40
68588;BMP180;55560;52.174;20.996;2024-01-06T02:30:29;99898.80;;;-1.38
68588;BMP180;55560;52.174;20.996;2024-01-06T02:32:57;99899.20;;;-1.30
68588;BMP180;55560;52.174;20.996;2024-01-06T02:35:25;99894.00;;;-1.30
68588;BMP180;55560;52.174;20.996;2024-01-06T02:37:53;99887.20;;;-1.30
68588;BMP180;55560;52.174;20.996;2024-01-06T02:40:21;99889.20;;;-1.30
68588;BMP180;55560;52.174;20.996;2024-01-06T02:42:49;99892.20;;;-1.30
68588;BMP180;55560;52.174;20.996;2024-01-06T02:45:17;99888.80;;;-1.30
68588;BMP180;55560;52.174;20.996;2024-01-06T02:47:45;99892.60;;;-1.30
68588;BMP180;55560;52.174;20.996;2024-01-06T02:50:13;99887.20;;;-1.36
68588;BMP180;55560;52.174;20.996;2024-01-06T02:52:42;99879.80;;;-1.40
68588;BMP180;55560;52.174;20.996;2024-01-06T02:55:10;99879.40;;;-1.40
68588;BMP180;55560;52.174;20.996;2024-01-06T02:57:39;99894.60;;;-1.42
68588;BMP180;55560;52.174;20.996;2024-01-06T03:00:08;99901.80;;;-1.50
68588;BMP180;55560;52.174;20.996;2024-01-06T03:02:36;99902.20;;;-1.48
68588;BMP180;55560;52.174;20.996;2024-01-06T03:05:05;99897.20;;;-1.42
68588;BMP180;55560;52.174;20.996;2024-01-06T03:07:33;99895.40;;;-1.40
68588;BMP180;55560;52.174;20.996;2024-01-06T03:10:02;99889.80;;;-1.40
68588;BMP180;55560;52.174;20.996;2024-01-06T03:12:30;99894.60;;;-1.40
68588;BMP180;55560;52.174;20.996;2024-01-06T03:14:58;99895.00;;;-1.40
68588;BMP180;55560;52.174;20.996;2024-01-06T03:17:26;99896.80;;;-1.40
68588;BMP180;55560;52.174;20.996;2024-01-06T03:19:57;99884.20;;;-1.38
68588;BMP180;55560;52.174;20.996;2024-01-06T03:22:25;99884.40;;;-1.32
68588;BMP180;55560;52.174;20.996;2024-01-06T03:24:53;99888.00;;;-1.38
68588;BMP180;55560;52.174;20.996;2024-01-06T03:27:21;99894.40;;;-1.38
68588;BMP180;55560;52.174;20.996;2024-01-06T03:29:49;99889.60;;;-1.32
68588;BMP180;55560;52.174;20.996;2024-01-06T03:32:17;99884.60;;;-1.34
68588;BMP180;55560;52.174;20.996;2024-01-06T03:34:45;99890.40;;;-1.40
68588;BMP180;55560;52.174;20.996;2024-01-06T03:37:13;99882.80;;;-1.40
68588;BMP180;55560;52.174;20.996;2024-01-06T03:39:41;99891.60;;;-1.40
68588;BMP180;55560;52.174;20.996;2024-01-06T03:42:09;99888.20;;;-1.36
68588;BMP180;55560;52.174;20.996;2024-01-06T03:44:37;99895.60;;;-1.30
68588;BMP180;55560;52.174;20.996;2024-01-06T03:47:05;99886.60;;;-1.30
68588;BMP180;55560;52.174;20.996;2024-01-06T03:49:33;99888.00;;;-1.30
68588;BMP180;55560;52.174;20.996;2024-01-06T03:52:01;99892.00;;;-1.30
68588;BMP180;55560;52.174;20.996;2024-01-06T03:54:29;99882.80;;;-1.30
68588;BMP180;55560;52.174;20.996;2024-01-06T03:56:57;99885.60;;;-1.30
68588;BMP180;55560;52.174;20.996;2024-01-06T03:59:25;99886.00;;;-1.30
68588;BMP180;55560;52.174;20.996;2024-01-06T04:01:53;99883.00;;;-1.30
68588;BMP180;55560;52.174;20.996;2024-01-06T04:04:21;99888.80;;;-1.30
68588;BMP180;55560;52.174;20.996;2024-01-06T04:06:49;99896.00;;;-1.30
68588;BMP180;55560;52.174;20.996;2024-01-06T04:09:17;99897.20;;;-1.30
68588;BMP180;55560;52.174;20.996;2024-01-06T04:11:46;99903.00;;;-1.36
68588;BMP180;55560;52.174;20.996;2024-01-06T04:14:13;99904.20;;;-1.30
68588;BMP180;55560;52.174;20.996;2024-01-06T04:16:41;99905.00;;;-1.30
68588;BMP180;55560;52.174;20.996;2024-01-06T04:19:09;99894.20;;;-1.30
68588;BMP180;55560;52.174;20.996;2024-01-06T04:21:39;99895.40;;;-1.32
68588;BMP180;55560;52.174;20.996;2024-01-06T04:24:07;99890.00;;;-1.30
68588;BMP180;55560;52.174;20.996;2024-01-06T04:26:36;99895.20;;;-1.30
68588;BMP180;55560;52.174;20.996;2024-01-06T04:29:04;99896.40;;;-1.36
68588;BMP180;55560;52.174;20.996;2024-01-06T04:31:32;99895.60;;;-1.30
68588;BMP180;55560;52.174;20.996;2024-01-06T04:34:00;99899.80;;;-1.30
68588;BMP180;55560;52.174;20.996;2024-01-06T04:36:29;99894.40;;;-1.30
68588;BMP180;55560;52.174;20.996;2024-01-06T04:38:57;99898.60;;;-1.30
68588;BMP180;55560;52.174;20.996;2024-01-06T04:41:25;99904.20;;;-1.32
68588;BMP180;55560;52.174;20.996;2024-01-06T04:43:53;99917.20;;;-1.34
68588;BMP180;55560;52.174;20.996;2024-01-06T04:46:21;99916.20;;;-1.38
68588;BMP180;55560;52.174;20.996;2024-01-06T04:48:49;99912.40;;;-1.38
68588;BMP180;55560;52.174;20.996;2024-01-06T04:51:17;99912.60;;;-1.40
68588;BMP180;55560;52.174;20.996;2024-01-06T04:53:45;99907.80;;;-1.40
68588;BMP180;55560;52.174;20.996;2024-01-06T04:56:13;99905.80;;;-1.38
68588;BMP180;55560;52.174;20.996;2024-01-06T04:58:41;99911.40;;;-1.30
68588;BMP180;55560;52.174;20.996;2024-01-06T05:01:09;99911.20;;;-1.30
68588;BMP180;55560;52.174;20.996;2024-01-06T05:03:38;99922.40;;;-1.30
68588;BMP180;55560;52.174;20.996;2024-01-06T05:06:06;99917.80;;;-1.30
68588;BMP180;55560;52.174;20.996;2024-01-06T05:08:34;99910.40;;;-1.30
68588;BMP180;55560;52.174;20.996;2024-01-06T05:11:05;99902.60;;;-1.30
68588;BMP180;55560;52.174;20.996;2024-01-06T05:13:33;99904.00;;;-1.30
68588;BMP180;55560;52.174;20.996;2024-01-06T05:16:01;99911.80;;;-1.30
68588;BMP180;55560;52.174;20.996;2024-01-06T05:18:29;99905.00;;;-1.30
68588;BMP180;55560;52.174;20.996;2024-01-06T05:20:57;99908.60;;;-1.30
68588;BMP180;55560;52.174;20.996;2024-01-06T05:23:26;99915.00;;;-1.30
68588;BMP180;55560;52.174;20.996;2024-01-06T05:25:54;99923.20;;;-1.28
68588;BMP180;55560;52.174;20.996;2024-01-06T05:28:21;99922.80;;;-1.28
68588;BMP180;55560;52.174;20.996;2024-01-06T05:30:49;99924.00;;;-1.20
68588;BMP180;55560;52.174;20.996;2024-01-06T05:33:18;99918.60;;;-1.24
68588;BMP180;55560;52.174;20.996;2024-01-06T05:35:47;99923.80;;;-1.26
68588;BMP180;55560;52.174;20.996;2024-01-06T05:38:14;99922.80;;;-1.30
68588;BMP180;55560;52.174;20.996;2024-01-06T05:40:43;99924.20;;;-1.30
68588;BMP180;55560;52.174;20.996;2024-01-06T05:43:10;99934.00;;;-1.30
68588;BMP180;55560;52.174;20.996;2024-01-06T05:45:38;99929.40;;;-1.30
68588;BMP180;55560;52.174;20.996;2024-01-06T05:48:10;99924.20;;;-1.30
68588;BMP180;55560;52.174;20.996;2024-01-06T05:50:38;99928.00;;;-1.30
68588;BMP180;55560;52.174;20.996;2024-01-06T05:53:09;99930.40;;;-1.30
68588;BMP180;55560;52.174;20.996;2024-01-06T05:55:38;99926.40;;;-1.30
68588;BMP180;55560;52.174;20.996;2024-01-06T05:58:06;99926.60;;;-1.30
68588;BMP180;55560;52.174;20.996;2024-01-06T06:00:34;99925.40;;;-1.30
68588;BMP180;55560;52.174;20.996;2024-01-06T06:03:02;99925.20;;;-1.32
68588;BMP180;55560;52.174;20.996;2024-01-06T06:05:32;99930.60;;;-1.30
68588;BMP180;55560;52.174;20.996;2024-01-06T06:08:00;99935.00;;;-1.36
68588;BMP180;55560;52.174;20.996;2024-01-06T06:10:28;99941.20;;;-1.40
68588;BMP180;55560;52.174;20.996;2024-01-06T06:13:09;99942.60;;;-1.40
68588;BMP180;55560;52.174;20.996;2024-01-06T06:15:38;99947.20;;;-1.40
68588;BMP180;55560;52.174;20.996;2024-01-06T06:18:08;99952.80;;;-1.38
68588;BMP180;55560;52.174;20.996;2024-01-06T06:20:36;99960.80;;;-1.30
68588;BMP180;55560;52.174;20.996;2024-01-06T06:23:04;99962.40;;;-1.30
68588;BMP180;55560;52.174;20.996;2024-01-06T06:25:32;99959.00;;;-1.30
68588;BMP180;55560;52.174;20.996;2024-01-06T06:28:00;99962.60;;;-1.22
68588;BMP180;55560;52.174;20.996;2024-01-06T06:30:28;99974.40;;;-1.30
68588;BMP180;55560;52.174;20.996;2024-01-06T06:32:56;99975.00;;;-1.30
68588;BMP180;55560;52.174;20.996;2024-01-06T06:35:25;99969.80;;;-1.30
68588;BMP180;55560;52.174;20.996;2024-01-06T06:37:54;99968.40;;;-1.24
68588;BMP180;55560;52.174;20.996;2024-01-06T06:40:22;99971.00;;;-1.26
68588;BMP180;55560;52.174;20.996;2024-01-06T06:42:54;99976.20;;;-1.26
68588;BMP180;55560;52.174;20.996;2024-01-06T06:45:22;99981.20;;;-1.26
68588;BMP180;55560;52.174;20.996;2024-01-06T06:47:50;99990.00;;;-1.20
68588;BMP180;55560;52.174;20.996;2024-01-06T06:50:19;99993.60;;;-1.20
68588;BMP180;55560;52.174;20.996;2024-01-06T06:52:48;99996.60;;;-1.20
68588;BMP180;55560;52.174;20.996;2024-01-06T06:55:16;100008.40;;;-1.20
68588;BMP180;55560;52.174;20.996;2024-01-06T06:57:44;100008.40;;;-1.20
68588;BMP180;55560;52.174;20.996;2024-01-06T07:00:13;100008.80;;;-1.20
68588;BMP180;55560;52.174;20.996;2024-01-06T07:02:42;100005.80;;;-1.20
68588;BMP180;55560;52.174;20.996;2024-01-06T07:05:11;100007.40;;;-1.20
68588;BMP180;55560;52.174;20.996;2024-01-06T07:07:39;100007.60;;;-1.20
68588;BMP180;55560;52.174;20.996;2024-01-06T07:10:07;100008.20;;;-1.10
68588;BMP180;55560;52.174;20.996;2024-01-06T07:12:35;100004.40;;;-1.20
68588;BMP180;55560;52.174;20.996;2024-01-06T07:15:04;100006.00;;;-1.20
68588;BMP180;55560;52.174;20.996;2024-01-06T07:17:35;100003.00;;;-1.20
68588;BMP180;55560;52.174;20.996;2024-01-06T07:20:04;100005.40;;;-1.20
68588;BMP180;55560;52.174;20.996;2024-01-06T07:22:33;100000.20;;;-1.18
68588;BMP180;55560;52.174;20.996;2024-01-06T07:25:02;99997.20;;;-1.10
68588;BMP180;55560;52.174;20.996;2024-01-06T07:27:30;99993.80;;;-1.10
68588;BMP180;55560;52.174;20.996;2024-01-06T07:29:58;99992.00;;;-1.10
68588;BMP180;55560;52.174;20.996;2024-01-06T07:32:27;99989.60;;;-1.10
68588;BMP180;55560;52.174;20.996;2024-01-06T07:34:55;99995.20;;;-1.10
68588;BMP180;55560;52.174;20.996;2024-01-06T07:37:23;100002.80;;;-1.10
68588;BMP180;55560;52.174;20.996;2024-01-06T07:39:51;100009.80;;;-1.10
68588;BMP180;55560;52.174;20.996;2024-01-06T07:42:19;100010.80;;;-1.10
68588;BMP180;55560;52.174;20.996;2024-01-06T07:44:47;100018.80;;;-1.10
68588;BMP180;55560;52.174;20.996;2024-01-06T07:47:15;100020.40;;;-1.10
68588;BMP180;55560;52.174;20.996;2024-01-06T07:49:43;100034.20;;;-1.20
68588;BMP180;55560;52.174;20.996;2024-01-06T07:52:12;100034.80;;;-1.16
68588;BMP180;55560;52.174;20.996;2024-01-06T07:54:41;100036.00;;;-1.10
68588;BMP180;55560;52.174;20.996;2024-01-06T07:57:09;100043.20;;;-1.10
68588;BMP180;55560;52.174;20.996;2024-01-06T07:59:39;100043.20;;;-1.10
68588;BMP180;55560;52.174;20.996;2024-01-06T08:02:07;100043.80;;;-1.00
68588;BMP180;55560;52.174;20.996;2024-01-06T08:04:35;100040.80;;;-1.00
68588;BMP180;55560;52.174;20.996;2024-01-06T08:07:04;100042.60;;;-1.00
68588;BMP180;55560;52.174;20.996;2024-01-06T08:09:32;100040.00;;;-1.00
68588;BMP180;55560;52.174;20.996;2024-01-06T08:12:01;100040.40;;;-1.00
68588;BMP180;55560;52.174;20.996;2024-01-06T08:14:33;100041.60;;;-1.00
68588;BMP180;55560;52.174;20.996;2024-01-06T08:17:01;100042.00;;;-1.00
68588;BMP180;55560;52.174;20.996;2024-01-06T08:19:29;100044.20;;;-1.00
68588;BMP180;55560;52.174;20.996;2024-01-06T08:21:59;100043.20;;;-1.00
68588;BMP180;55560;52.174;20.996;2024-01-06T08:24:27;100040.00;;;-1.00
68588;BMP180;55560;52.174;20.996;2024-01-06T08:26:55;100039.80;;;-0.96
68588;BMP180;55560;52.174;20.996;2024-01-06T08:29:23;100046.00;;;-1.00
68588;BMP180;55560;52.174;20.996;2024-01-06T08:31:51;100049.80;;;-1.00
68588;BMP180;55560;52.174;20.996;2024-01-06T08:34:20;100055.20;;;-0.94
68588;BMP180;55560;52.174;20.996;2024-01-06T08:36:48;100056.80;;;-0.90
68588;BMP180;55560;52.174;20.996;2024-01-06T08:39:17;100060.60;;;-0.90
68588;BMP180;55560;52.174;20.996;2024-01-06T08:41:45;100063.00;;;-0.90
68588;BMP180;55560;52.174;20.996;2024-01-06T08:44:14;100064.00;;;-0.90
68588;BMP180;55560;52.174;20.996;2024-01-06T08:46:42;100063.60;;;-0.90
68588;BMP180;55560;52.174;20.996;2024-01-06T08:49:10;100068.00;;;-0.82
68588;BMP180;55560;52.174;20.996;2024-01-06T08:51:38;100069.00;;;-0.80
68588;BMP180;55560;52.174;20.996;2024-01-06T08:54:06;100074.40;;;-0.80
68588;BMP180;55560;52.174;20.996;2024-01-06T08:56:34;100078.00;;;-0.80
68588;BMP180;55560;52.174;20.996;2024-01-06T08:59:02;100085.20;;;-0.80
68588;BMP180;55560;52.174;20.996;2024-01-06T09:01:30;100090.80;;;-0.70
68588;BMP180;55560;52.174;20.996;2024-01-06T09:04:00;100099.60;;;-0.70
68588;BMP180;55560;52.174;20.996;2024-01-06T09:06:30;100096.00;;;-0.70
68588;BMP180;55560;52.174;20.996;2024-01-06T09:08:59;100096.80;;;-0.70
68588;BMP180;55560;52.174;20.996;2024-01-06T09:11:27;100099.40;;;-0.70
68588;BMP180;55560;52.174;20.996;2024-01-06T09:13:55;100105.20;;;-0.70
68588;BMP180;55560;52.174;20.996;2024-01-06T09:16:23;100102.40;;;-0.60
68588;BMP180;55560;52.174;20.996;2024-01-06T09:18:51;100110.00;;;-0.60
68588;BMP180;55560;52.174;20.996;2024-01-06T09:21:20;100103.60;;;-0.60
68588;BMP180;55560;52.174;20.996;2024-01-06T09:23:48;100103.80;;;-0.60
68588;BMP180;55560;52.174;20.996;2024-01-06T09:26:16;100104.20;;;-0.60
68588;BMP180;55560;52.174;20.996;2024-01-06T09:28:44;100103.20;;;-0.60
68588;BMP180;55560;52.174;20.996;2024-01-06T09:31:12;100102.00;;;-0.58
68588;BMP180;55560;52.174;20.996;2024-01-06T09:33:41;100101.40;;;-0.50
68588;BMP180;55560;52.174;20.996;2024-01-06T09:36:09;100102.80;;;-0.50
68588;BMP180;55560;52.174;20.996;2024-01-06T09:38:40;100100.00;;;-0.56
68588;BMP180;55560;52.174;20.996;2024-01-06T09:41:08;100099.40;;;-0.52
68588;BMP180;55560;52.174;20.996;2024-01-06T09:43:36;100105.00;;;-0.50
68588;BMP180;55560;52.174;20.996;2024-01-06T09:46:15;100101.60;;;-0.50
68588;BMP180;55560;52.174;20.996;2024-01-06T09:48:44;100097.60;;;-0.50
68588;BMP180;55560;52.174;20.996;2024-01-06T09:51:13;100095.60;;;-0.50
68588;BMP180;55560;52.174;20.996;2024-01-06T09:54:01;100095.40;;;-0.50
68588;BMP180;55560;52.174;20.996;2024-01-06T09:56:32;100092.20;;;-0.48
68588;BMP180;55560;52.174;20.996;2024-01-06T09:59:01;100093.60;;;-0.50
68588;BMP180;55560;52.174;20.996;2024-01-06T10:01:29;100103.00;;;-0.50
68588;BMP180;55560;52.174;20.996;2024-01-06T10:07:02;100105.60;;;-0.50
68588;BMP180;55560;52.174;20.996;2024-01-06T10:09:30;100102.60;;;-0.50
68588;BMP180;55560;52.174;20.996;2024-01-06T10:11:58;100108.00;;;-0.50
68588;BMP180;55560;52.174;20.996;2024-01-06T10:14:27;100107.60;;;-0.50
68588;BMP180;55560;52.174;20.996;2024-01-06T10:16:55;100112.40;;;-0.50
68588;BMP180;55560;52.174;20.996;2024-01-06T10:19:24;100115.60;;;-0.50
68588;BMP180;55560;52.174;20.996;2024-01-06T10:21:52;100112.00;;;-0.50
68588;BMP180;55560;52.174;20.996;2024-01-06T10:24:20;100113.80;;;-0.52
68588;BMP180;55560;52.174;20.996;2024-01-06T10:26:48;100116.80;;;-0.60
68588;BMP180;55560;52.174;20.996;2024-01-06T10:29:17;100114.80;;;-0.60
68588;BMP180;55560;52.174;20.996;2024-01-06T10:31:45;100114.80;;;-0.60
68588;BMP180;55560;52.174;20.996;2024-01-06T10:34:14;100118.60;;;-0.58
68588;BMP180;55560;52.174;20.996;2024-01-06T10:36:43;100116.40;;;-0.50
68588;BMP180;55560;52.174;20.996;2024-01-06T10:39:11;100118.80;;;-0.60
68588;BMP180;55560;52.174;20.996;2024-01-06T10:41:44;100115.80;;;-0.58
68588;BMP180;55560;52.174;20.996;2024-01-06T10:44:12;100117.40;;;-0.50
68588;BMP180;55560;52.174;20.996;2024-01-06T10:46:41;100122.60;;;-0.50
68588;BMP180;55560;52.174;20.996;2024-01-06T10:49:10;100125.80;;;-0.50
68588;BMP180;55560;52.174;20.996;2024-01-06T10:51:39;100122.80;;;-0.40
68588;BMP180;55560;52.174;20.996;2024-01-06T10:54:08;100119.40;;;-0.40
68588;BMP180;55560;52.174;20.996;2024-01-06T10:56:38;100120.40;;;-0.40
68588;BMP180;55560;52.174;20.996;2024-01-06T10:59:07;100116.60;;;-0.40
68588;BMP180;55560;52.174;20.996;2024-01-06T11:01:36;100107.40;;;-0.40
68588;BMP180;55560;52.174;20.996;2024-01-06T11:04:04;100099.60;;;-0.40
68588;BMP180;55560;52.174;20.996;2024-01-06T11:06:34;100103.00;;;-0.40
68588;BMP180;55560;52.174;20.996;2024-01-06T11:09:16;100103.00;;;-0.40
68588;BMP180;55560;52.174;20.996;2024-01-06T11:11:45;100097.80;;;-0.40
68588;BMP180;55560;52.174;20.996;2024-01-06T11:14:19;100101.40;;;-0.40
68588;BMP180;55560;52.174;20.996;2024-01-06T11:16:50;100103.00;;;-0.36
68588;BMP180;55560;52.174;20.996;2024-01-06T11:22:25;100104.40;;;-0.38
68588;BMP180;55560;52.174;20.996;2024-01-06T11:24:55;100107.00;;;-0.40
68588;BMP180;55560;52.174;20.996;2024-01-06T11:27:28;100115.60;;;-0.42
68588;BMP180;55560;52.174;20.996;2024-01-06T11:29:58;100115.60;;;-0.50
68588;BMP180;55560;52.174;20.996;2024-01-06T11:32:39;100114.40;;;-0.50
68588;BMP180;55560;52.174;20.996;2024-01-06T11:35:13;100115.80;;;-0.50
68588;BMP180;55560;52.174;20.996;2024-01-06T11:40:17;100118.40;;;-0.50
68588;BMP180;55560;52.174;20.996;2024-01-06T11:45:30;100120.40;;;-0.60
68588;BMP180;55560;52.174;20.996;2024-01-06T11:48:01;100117.80;;;-0.60
68588;BMP180;55560;52.174;20.996;2024-01-06T11:50:34;100119.60;;;-0.60
68588;BMP180;55560;52.174;20.996;2024-01-06T11:53:04;100122.60;;;-0.60
68588;BMP180;55560;52.174;20.996;2024-01-06T11:55:33;100124.40;;;-0.60
68588;BMP180;55560;52.174;20.996;2024-01-06T11:58:02;100122.40;;;-0.60
68588;BMP180;55560;52.174;20.996;2024-01-06T12:00:34;100122.60;;;-0.50
68588;BMP180;55560;52.174;20.996;2024-01-06T12:03:08;100121.40;;;-0.54
68588;BMP180;55560;52.174;20.996;2024-01-06T12:05:37;100122.40;;;-0.60
68588;BMP180;55560;52.174;20.996;2024-01-06T12:08:05;100123.20;;;-0.60
68588;BMP180;55560;52.174;20.996;2024-01-06T12:10:36;100122.00;;;-0.50
68588;BMP180;55560;52.174;20.996;2024-01-06T12:13:06;100125.20;;;-0.58
68588;BMP180;55560;52.174;20.996;2024-01-06T12:15:41;100123.00;;;-0.60
68588;BMP180;55560;52.174;20.996;2024-01-06T12:18:09;100128.20;;;-0.60
68588;BMP180;55560;52.174;20.996;2024-01-06T12:20:38;100126.00;;;-0.60
68588;BMP180;55560;52.174;20.996;2024-01-06T12:23:06;100129.00;;;-0.52
68588;BMP180;55560;52.174;20.996;2024-01-06T12:25:35;100126.20;;;-0.52
68588;BMP180;55560;52.174;20.996;2024-01-06T12:28:07;100126.00;;;-0.52
68588;BMP180;55560;52.174;20.996;2024-01-06T12:30:38;100126.80;;;-0.60
68588;BMP180;55560;52.174;20.996;2024-01-06T12:33:06;100126.60;;;-0.58
68588;BMP180;55560;52.174;20.996;2024-01-06T12:35:34;100130.40;;;-0.56
68588;BMP180;55560;52.174;20.996;2024-01-06T12:38:03;100132.20;;;-0.52
68588;BMP180;55560;52.174;20.996;2024-01-06T12:40:36;100132.40;;;-0.50
68588;BMP180;55560;52.174;20.996;2024-01-06T12:43:05;100135.00;;;-0.50
68588;BMP180;55560;52.174;20.996;2024-01-06T12:45:33;100137.20;;;-0.50
68588;BMP180;55560;52.174;20.996;2024-01-06T12:48:02;100144.80;;;-0.50
68588;BMP180;55560;52.174;20.996;2024-01-06T12:50:31;100141.80;;;-0.50
68588;BMP180;55560;52.174;20.996;2024-01-06T12:52:59;100145.40;;;-0.50
68588;BMP180;55560;52.174;20.996;2024-01-06T12:55:27;100148.20;;;-0.50
68588;BMP180;55560;52.174;20.996;2024-01-06T12:57:55;100146.20;;;-0.50
68588;BMP180;55560;52.174;20.996;2024-01-06T13:00:23;100147.00;;;-0.50
68588;BMP180;55560;52.174;20.996;2024-01-06T13:02:51;100154.20;;;-0.50
68588;BMP180;55560;52.174;20.996;2024-01-06T13:05:20;100162.80;;;-0.50
68588;BMP180;55560;52.174;20.996;2024-01-06T13:07:49;100167.20;;;-0.50
68588;BMP180;55560;52.174;20.996;2024-01-06T13:10:16;100168.40;;;-0.50
68588;BMP180;55560;52.174;20.996;2024-01-06T13:12:45;100173.60;;;-0.50
68588;BMP180;55560;52.174;20.996;2024-01-06T13:15:13;100175.40;;;-0.60
68588;BMP180;55560;52.174;20.996;2024-01-06T13:17:41;100179.80;;;-0.70
68588;BMP180;55560;52.174;20.996;2024-01-06T13:20:10;100187.00;;;-0.70
68588;BMP180;55560;52.174;20.996;2024-01-06T13:22:38;100185.40;;;-0.70
68588;BMP180;55560;52.174;20.996;2024-01-06T13:25:08;100189.80;;;-0.70
68588;BMP180;55560;52.174;20.996;2024-01-06T13:27:37;100187.80;;;-0.70
68588;BMP180;55560;52.174;20.996;2024-01-06T13:30:06;100199.00;;;-0.70
68588;BMP180;55560;52.174;20.996;2024-01-06T13:32:34;100191.40;;;-0.76
68588;BMP180;55560;52.174;20.996;2024-01-06T13:35:03;100191.80;;;-0.80
68588;BMP180;55560;52.174;20.996;2024-01-06T13:37:33;100196.60;;;-0.80
68588;BMP180;55560;52.174;20.996;2024-01-06T13:40:01;100191.20;;;-0.80
68588;BMP180;55560;52.174;20.996;2024-01-06T13:42:29;100194.60;;;-0.80
68588;BMP180;55560;52.174;20.996;2024-01-06T13:44:57;100200.60;;;-0.80
68588;BMP180;55560;52.174;20.996;2024-01-06T13:47:28;100199.80;;;-0.76
68588;BMP180;55560;52.174;20.996;2024-01-06T13:49:57;100199.20;;;-0.72
68588;BMP180;55560;52.174;20.996;2024-01-06T13:52:26;100201.20;;;-0.72
68588;BMP180;55560;52.174;20.996;2024-01-06T13:54:54;100208.60;;;-0.80
68588;BMP180;55560;52.174;20.996;2024-01-06T13:57:22;100208.00;;;-0.80
68588;BMP180;55560;52.174;20.996;2024-01-06T13:59:50;100207.60;;;-0.80
68588;BMP180;55560;52.174;20.996;2024-01-06T14:02:18;100210.40;;;-0.80
68588;BMP180;55560;52.174;20.996;2024-01-06T14:04:47;100217.40;;;-0.80
68588;BMP180;55560;52.174;20.996;2024-01-06T14:07:16;100219.00;;;-0.80
68588;BMP180;55560;52.174;20.996;2024-01-06T14:09:47;100220.40;;;-0.80
68588;BMP180;55560;52.174;20.996;2024-01-06T14:12:15;100220.60;;;-0.80